Time;durP1;ratioP1;P1;durP2;ratioP2;P2;SDS_P1;SDS_P2;PMS_P1;PMS_P2;Temp;Humidity;BMP_temperature;BMP_pressure;BME280_temperature;BME280_humidity;BME280_pressure;Samples;Min_cycle;Max_cycle;Signal;HPM_P1;HPM_P2
2023/05/01 00:00:03;;;;;;;2.58;0.93;;;14.10;99.90;;;;;;5025598;28;20472;-77
2023/05/01 00:02:29;;;;;;;1.50;0.73;;;14.10;99.90;;;;;;5024258;28;20029;-77
2023/05/01 00:04:55;;;;;;;2.50;0.80;;;14.10;99.90;;;;;;5025370;28;20428;-77
2023/05/01 00:07:21;;;;;;;1.27;0.70;;;14.10;99.90;;;;;;5025316;28;20030;-77
2023/05/01 00:09:47;;;;;;;3.13;1.10;;;14.00;99.90;;;;;;5024266;28;20029;-77
2023/05/01 00:12:12;;;;;;;2.30;0.77;;;14.00;99.90;;;;;;5024950;28;20029;-77
2023/05/01 00:14:38;;;;;;;1.77;0.88;;;14.00;99.90;;;;;;5024840;28;20037;-77
2023/05/01 00:17:05;;;;;;;1.80;0.90;;;14.10;99.90;;;;;;5024398;28;20384;-77
2023/05/01 00:19:31;;;;;;;1.77;0.95;;;14.30;99.90;;;;;;5023557;28;20407;-77
2023/05/01 00:21:57;;;;;;;1.92;1.02;;;14.50;99.90;;;;;;5020178;28;20041;-77
2023/05/01 00:24:23;;;;;;;2.97;0.98;;;14.40;99.90;;;;;;5027326;28;20026;-77
2023/05/01 00:26:48;;;;;;;2.17;0.90;;;14.50;99.90;;;;;;5026734;28;20033;-77
2023/05/01 00:29:15;;;;;;;1.13;0.60;;;14.60;99.90;;;;;;5021898;28;20945;-77
2023/05/01 00:31:41;;;;;;;2.08;0.93;;;14.70;99.90;;;;;;5025446;28;20029;-77
2023/05/01 00:34:08;;;;;;;1.27;0.68;;;14.60;99.90;;;;;;5028396;28;20044;-77
2023/05/01 00:36:33;;;;;;;1.27;0.80;;;14.50;99.90;;;;;;5026568;28;20096;-77
2023/05/01 00:38:59;;;;;;;1.83;0.77;;;14.30;99.90;;;;;;5025296;28;20036;-77
2023/05/01 00:41:25;;;;;;;0.93;0.60;;;14.50;99.90;;;;;;5028184;28;20037;-77
2023/05/01 00:43:51;;;;;;;1.33;0.65;;;14.60;99.90;;;;;;5028369;28;20033;-77
2023/05/01 00:46:17;;;;;;;1.90;0.90;;;14.70;99.90;;;;;;5028520;28;20044;-78
2023/05/01 00:48:43;;;;;;;1.98;0.73;;;14.80;99.90;;;;;;5028195;28;20111;-77
2023/05/01 00:51:09;;;;;;;2.78;1.13;;;14.90;99.90;;;;;;5027957;28;20090;-77
2023/05/01 00:53:35;;;;;;;1.98;0.90;;;14.90;99.90;;;;;;5027138;28;20056;-77
2023/05/01 00:56:01;;;;;;;2.33;0.80;;;14.80;99.90;;;;;;5027154;28;20059;-77
2023/05/01 00:58:27;;;;;;;2.42;0.88;;;14.60;99.90;;;;;;5027740;28;20029;-77
2023/05/01 01:00:54;;;;;;;2.85;1.10;;;14.40;99.90;;;;;;5029125;28;20030;-78
2023/05/01 01:03:20;;;;;;;2.30;1.20;;;14.40;99.90;;;;;;5028612;28;20459;-78
2023/05/01 01:06:09;;;;;;;1.20;0.70;;;14.30;99.90;;;;;;5025263;28;20136;-78
2023/05/01 01:08:42;;;;;;;3.65;0.98;;;14.40;99.90;;;;;;5027745;28;20056;-77
2023/05/01 01:11:26;;;;;;;1.80;0.90;;;14.50;99.90;;;;;;5027537;28;20052;-77
2023/05/01 01:13:57;;;;;;;2.50;0.90;;;14.60;99.90;;;;;;5026965;28;20061;-77
2023/05/01 01:17:10;;;;;;;1.55;0.77;;;14.50;99.90;;;;;;5027022;28;20021;-77
2023/05/01 01:19:50;;;;;;;1.13;0.50;;;14.50;99.90;;;;;;4984580;28;20037;-78
2023/05/01 01:22:22;;;;;;;1.98;0.77;;;14.20;99.90;;;;;;5025745;28;20021;-77
2023/05/01 01:24:51;;;;;;;1.95;0.82;;;14.20;99.90;;;;;;5025615;28;20767;-77
2023/05/01 01:27:35;;;;;;;2.65;0.90;;;14.10;99.90;;;;;;5030725;28;20056;-77
2023/05/01 01:30:17;;;;;;;2.88;1.00;;;14.20;99.90;;;;;;5028733;28;20056;-77
2023/05/01 01:33:00;;;;;;;3.92;1.10;;;14.30;99.90;;;;;;5025030;28;20132;-77
2023/05/01 01:35:27;;;;;;;1.73;0.75;;;14.20;99.90;;;;;;5025929;28;20116;-77
2023/05/01 01:37:59;;;;;;;2.15;0.90;;;14.30;99.90;;;;;;5026212;28;20041;-77
2023/05/01 01:40:32;;;;;;;2.13;0.90;;;14.40;99.90;;;;;;5022944;28;20072;-78
2023/05/01 01:43:06;;;;;;;4.03;1.40;;;14.40;99.90;;;;;;5028173;28;20033;-77
2023/05/01 01:45:42;;;;;;;;;;;14.40;99.90;;;;;;5017516;28;20052;-77
2023/05/01 01:48:12;;;;;;;2.58;1.30;;;14.50;99.90;;;;;;5024473;28;19909;-77
2023/05/01 01:50:39;;;;;;;2.10;0.95;;;14.60;99.90;;;;;;5021622;28;20088;-77
2023/05/01 01:53:07;;;;;;;2.17;1.23;;;14.70;99.90;;;;;;5025013;28;20044;-78
2023/05/01 01:55:36;;;;;;;3.50;1.27;;;14.60;99.90;;;;;;5023218;28;20483;-77
2023/05/01 01:58:04;;;;;;;1.48;0.90;;;14.60;99.90;;;;;;5027668;28;20022;-77
2023/05/01 02:00:30;;;;;;;1.38;0.73;;;14.60;99.90;;;;;;5027019;28;20026;-77
2023/05/01 02:02:58;;;;;;;2.00;0.90;;;14.50;99.90;;;;;;5026621;28;20026;-77
2023/05/01 02:05:25;;;;;;;3.10;1.05;;;14.50;99.90;;;;;;5027760;28;20040;-77
2023/05/01 02:07:52;;;;;;;2.08;1.23;;;14.50;99.90;;;;;;5025922;28;20034;-78
2023/05/01 02:10:19;;;;;;;1.88;1.02;;;14.50;99.90;;;;;;5022660;28;20399;-77
2023/05/01 02:12:46;;;;;;;2.25;1.00;;;14.40;99.90;;;;;;5026087;28;20054;-78
2023/05/01 02:15:15;;;;;;;2.00;0.90;;;14.50;99.90;;;;;;5019379;28;20041;-77
2023/05/01 02:17:41;;;;;;;2.25;0.93;;;14.50;99.90;;;;;;5022096;28;20036;-77
2023/05/01 02:20:09;;;;;;;3.17;0.95;;;14.50;99.90;;;;;;5026230;28;20106;-78
2023/05/01 02:22:37;;;;;;;3.80;1.55;;;14.40;99.90;;;;;;5024683;28;20021;-77
2023/05/01 02:25:04;;;;;;;1.73;0.85;;;14.20;99.90;;;;;;5023583;28;20037;-77
2023/05/01 02:27:34;;;;;;;2.72;1.10;;;14.00;99.90;;;;;;5022407;28;20271;-78
2023/05/01 02:30:00;;;;;;;3.03;1.20;;;13.90;99.90;;;;;;5021332;28;20045;-78
2023/05/01 02:32:27;;;;;;;2.42;1.35;;;13.90;99.90;;;;;;5026809;28;20038;-77
2023/05/01 02:34:53;;;;;;;3.95;1.17;;;13.80;99.90;;;;;;5026343;28;20048;-77
2023/05/01 02:37:19;;;;;;;2.65;1.00;;;13.80;99.90;;;;;;5026985;28;20156;-77
2023/05/01 02:39:45;;;;;;;2.75;1.00;;;14.00;99.90;;;;;;5024138;28;20025;-77
2023/05/01 02:42:14;;;;;;;1.98;1.17;;;14.10;99.90;;;;;;5026393;28;20507;-77
2023/05/01 02:44:54;;;;;;;3.05;1.15;;;14.00;99.90;;;;;;5025753;28;20041;-77
2023/05/01 02:47:22;;;;;;;2.20;1.10;;;13.90;99.90;;;;;;5024899;28;20448;-78
2023/05/01 02:49:49;;;;;;;2.17;1.00;;;13.90;99.90;;;;;;5026743;28;20033;-77
2023/05/01 02:52:18;;;;;;;2.47;1.00;;;14.00;99.90;;;;;;5027149;28;20033;-77
2023/05/01 02:54:44;;;;;;;3.35;0.85;;;14.20;99.90;;;;;;5024489;28;20036;-77
2023/05/01 02:57:11;;;;;;;2.47;1.17;;;14.20;99.90;;;;;;5024838;28;20501;-77
2023/05/01 02:59:36;;;;;;;1.42;0.77;;;14.00;99.90;;;;;;5024126;28;20033;-77
2023/05/01 03:02:02;;;;;;;2.10;0.80;;;13.90;99.90;;;;;;5025607;28;20555;-77
2023/05/01 03:04:28;;;;;;;3.58;1.05;;;14.00;99.90;;;;;;5019600;28;20118;-78
2023/05/01 03:06:54;;;;;;;2.60;1.02;;;14.10;99.90;;;;;;5021410;28;20036;-77
2023/05/01 03:09:20;;;;;;;2.55;1.20;;;14.20;99.90;;;;;;5021589;28;20042;-78
2023/05/01 03:11:47;;;;;;;8.45;1.13;;;13.90;99.90;;;;;;5021154;28;20040;-78
2023/05/01 03:14:12;;;;;;;3.47;0.93;;;14.10;99.90;;;;;;5020243;28;20604;-77
2023/05/01 03:16:39;;;;;;;2.25;0.95;;;14.00;99.90;;;;;;5019889;28;20095;-77
2023/05/01 03:19:05;;;;;;;1.80;0.88;;;14.00;99.90;;;;;;5020700;28;20021;-77
2023/05/01 03:21:31;;;;;;;2.33;1.10;;;14.00;99.90;;;;;;5017298;28;20402;-77
2023/05/01 03:23:57;;;;;;;3.33;1.10;;;14.10;99.90;;;;;;5020879;28;20535;-78
2023/05/01 03:26:23;;;;;;;3.00;1.00;;;14.30;99.90;;;;;;5023198;28;20136;-77
2023/05/01 03:28:49;;;;;;;1.48;0.98;;;14.20;99.90;;;;;;5023102;28;20394;-77
2023/05/01 03:31:14;;;;;;;2.17;1.25;;;14.00;99.90;;;;;;5020887;28;20586;-77
2023/05/01 03:33:40;;;;;;;4.10;1.25;;;13.90;99.90;;;;;;5021107;28;20033;-77
2023/05/01 03:36:08;;;;;;;3.13;1.10;;;13.80;99.90;;;;;;5022358;28;20132;-78
2023/05/01 03:38:34;;;;;;;2.53;1.15;;;13.90;99.90;;;;;;5014730;28;20096;-77
2023/05/01 03:41:00;;;;;;;1.85;1.00;;;14.00;99.90;;;;;;5017569;28;21046;-76
2023/05/01 03:43:25;;;;;;;4.43;1.10;;;13.80;99.90;;;;;;5021064;28;20044;-78
2023/05/01 03:45:51;;;;;;;3.75;1.30;;;13.70;99.90;;;;;;5020194;28;20492;-78
2023/05/01 03:48:18;;;;;;;1.77;0.93;;;13.90;99.90;;;;;;5024898;28;20051;-77
2023/05/01 03:50:43;;;;;;;2.63;1.20;;;13.90;99.90;;;;;;5022768;28;20613;-78
2023/05/01 03:53:09;;;;;;;2.22;1.02;;;14.00;99.90;;;;;;5022192;28;20053;-77
2023/05/01 03:55:35;;;;;;;2.47;1.30;;;13.80;99.90;;;;;;5021491;28;20033;-77
2023/05/01 03:58:01;;;;;;;3.65;1.25;;;13.70;99.90;;;;;;5017765;28;20055;-77
2023/05/01 04:00:27;;;;;;;3.55;1.45;;;13.70;99.90;;;;;;5022407;28;20029;-78
2023/05/01 04:02:52;;;;;;;3.50;1.20;;;13.80;99.90;;;;;;5015075;28;20029;-78
2023/05/01 04:05:20;;;;;;;2.92;1.30;;;13.80;99.90;;;;;;5017188;28;20061;-77
2023/05/01 04:07:46;;;;;;;4.05;1.23;;;13.80;99.90;;;;;;5021290;28;20053;-78
2023/05/01 04:10:12;;;;;;;2.30;0.98;;;13.80;99.90;;;;;;5017728;28;20424;-77
2023/05/01 04:12:37;;;;;;;3.00;1.58;;;13.80;99.90;;;;;;5010286;28;20053;-78
2023/05/01 04:15:03;;;;;;;3.25;1.38;;;13.80;99.90;;;;;;5018552;28;20028;-77
2023/05/01 04:17:30;;;;;;;4.13;1.50;;;13.60;99.90;;;;;;5018128;28;20033;-77
2023/05/01 04:19:55;;;;;;;2.80;1.30;;;13.70;99.90;;;;;;5020256;28;20029;-78
2023/05/01 04:22:22;;;;;;;1.67;0.95;;;13.70;99.90;;;;;;5016920;28;20037;-78
2023/05/01 04:24:48;;;;;;;3.22;1.77;;;13.70;99.90;;;;;;5019975;28;20029;-78
2023/05/01 04:27:14;;;;;;;3.58;1.70;;;13.80;99.90;;;;;;5020155;28;20040;-78
2023/05/01 04:29:40;;;;;;;4.72;1.75;;;13.90;99.90;;;;;;5015936;28;20033;-79
2023/05/01 04:32:06;;;;;;;3.00;1.70;;;13.80;99.90;;;;;;5018953;28;20026;-77
2023/05/01 04:34:32;;;;;;;3.50;1.70;;;13.90;99.90;;;;;;5018299;28;20037;-77
2023/05/01 04:36:58;;;;;;;3.90;2.00;;;14.10;99.90;;;;;;5018591;28;20040;-78
2023/05/01 04:39:24;;;;;;;4.25;2.20;;;14.30;98.30;;;;;;5017890;28;20036;-78
2023/05/01 04:41:49;;;;;;;4.05;2.08;;;14.40;98.70;;;;;;5018717;28;20171;-78
2023/05/01 04:44:15;;;;;;;4.13;2.22;;;14.40;98.00;;;;;;5017225;28;20076;-78
2023/05/01 04:46:41;;;;;;;6.70;1.95;;;14.40;97.70;;;;;;5012015;28;20041;-78
2023/05/01 04:49:07;;;;;;;3.70;1.90;;;14.40;98.00;;;;;;5018820;28;20061;-77
2023/05/01 04:51:32;;;;;;;5.15;2.55;;;14.50;97.80;;;;;;5010245;28;20033;-77
2023/05/01 04:53:58;;;;;;;4.20;2.10;;;14.50;98.00;;;;;;5020158;28;20260;-78
2023/05/01 04:56:25;;;;;;;6.00;2.42;;;14.60;98.30;;;;;;5017573;28;20021;-77
2023/05/01 04:58:50;;;;;;;5.47;2.10;;;14.50;99.50;;;;;;5017279;28;20037;-79
2023/05/01 05:01:16;;;;;;;4.32;2.75;;;14.40;99.90;;;;;;5014786;28;20029;-77
2023/05/01 05:03:42;;;;;;;4.38;2.30;;;14.40;99.90;;;;;;5018474;28;20037;-77
2023/05/01 05:06:08;;;;;;;5.10;2.10;;;14.30;99.90;;;;;;5016946;28;20033;-78
2023/05/01 05:08:33;;;;;;;5.45;2.22;;;14.40;99.90;;;;;;5012021;28;20033;-78
2023/05/01 05:11:00;;;;;;;3.47;1.83;;;14.30;99.90;;;;;;5012453;28;20056;-77
2023/05/01 05:13:26;;;;;;;3.10;1.73;;;14.40;99.90;;;;;;5019586;28;20488;-78
2023/05/01 05:15:52;;;;;;;5.60;2.10;;;14.30;99.90;;;;;;5016147;28;20037;-78
2023/05/01 05:18:18;;;;;;;4.72;1.73;;;14.30;99.90;;;;;;5019851;28;20024;-78
2023/05/01 05:20:43;;;;;;;3.15;2.33;;;14.20;99.90;;;;;;5018199;28;20101;-77
2023/05/01 05:23:09;;;;;;;4.90;2.53;;;14.20;99.90;;;;;;5016890;28;20036;-78
2023/05/01 05:25:35;;;;;;;8.05;2.70;;;14.20;99.90;;;;;;5017880;28;20033;-77
2023/05/01 05:28:01;;;;;;;3.90;2.30;;;14.40;99.60;;;;;;5022165;28;20541;-78
2023/05/01 05:30:27;;;;;;;6.55;2.60;;;14.50;98.00;;;;;;5016459;28;20483;-78
2023/05/01 05:32:52;;;;;;;4.68;2.20;;;14.60;97.80;;;;;;5024066;28;20108;-78
2023/05/01 05:35:18;;;;;;;4.40;2.42;;;14.70;98.00;;;;;;5023985;28;20080;-77
2023/05/01 05:37:44;;;;;;;5.32;2.53;;;14.80;97.40;;;;;;5022512;28;20448;-77
2023/05/01 05:40:10;;;;;;;3.60;2.28;;;14.80;97.10;;;;;;5020958;28;20087;-77
2023/05/01 05:42:36;;;;;;;4.90;2.80;;;14.90;97.90;;;;;;5012875;28;20495;-79
2023/05/01 05:45:01;;;;;;;3.60;2.08;;;14.90;97.70;;;;;;5016153;28;20039;-80
2023/05/01 05:47:27;;;;;;;5.72;2.40;;;15.00;97.90;;;;;;5013685;28;20112;-79
2023/05/01 05:49:54;;;;;;;4.45;2.30;;;15.00;97.40;;;;;;5009598;28;20384;-79
2023/05/01 05:52:20;;;;;;;4.65;2.80;;;15.10;97.00;;;;;;5012776;28;20033;-80
2023/05/01 05:54:46;;;;;;;8.10;2.60;;;15.10;97.40;;;;;;5016995;28;20665;-79
2023/05/01 05:57:11;;;;;;;5.70;2.50;;;15.10;96.90;;;;;;5010731;28;20036;-81
2023/05/01 05:59:37;;;;;;;5.72;2.55;;;15.10;96.60;;;;;;5011825;28;20034;-78
2023/05/01 06:02:03;;;;;;;4.60;2.75;;;15.10;96.80;;;;;;5009217;28;21438;-77
2023/05/01 06:04:29;;;;;;;4.50;2.42;;;15.10;97.40;;;;;;5016579;28;20087;-78
2023/05/01 06:06:54;;;;;;;7.97;3.00;;;15.20;96.50;;;;;;5015236;28;20084;-78
2023/05/01 06:09:20;;;;;;;4.68;2.70;;;15.30;97.10;;;;;;5010084;28;20510;-80
2023/05/01 06:11:47;;;;;;;7.45;2.53;;;15.30;97.40;;;;;;5005897;28;20037;-79
2023/05/01 06:14:12;;;;;;;3.03;1.70;;;15.30;97.70;;;;;;5006987;28;20092;-79
2023/05/01 06:16:38;;;;;;;4.15;2.10;;;15.30;99.90;;;;;;5004593;28;20037;-78
2023/05/01 06:19:04;;;;;;;3.78;2.15;;;15.10;99.90;;;;;;5005675;28;20037;-80
2023/05/01 06:21:31;;;;;;;4.53;2.17;;;15.10;99.90;;;;;;5010843;28;20033;-79
2023/05/01 06:23:57;;;;;;;3.28;1.65;;;15.10;99.90;;;;;;5009646;28;20040;-78
2023/05/01 06:26:22;;;;;;;4.50;2.10;;;15.10;99.90;;;;;;5012072;28;20033;-78
2023/05/01 06:28:48;;;;;;;3.05;1.70;;;15.00;99.90;;;;;;5016068;28;20040;-79
2023/05/01 06:31:14;;;;;;;6.07;2.38;;;14.90;99.90;;;;;;5010946;28;20261;-78
2023/05/01 06:33:40;;;;;;;5.38;2.25;;;15.00;99.90;;;;;;5007131;28;20034;-78
2023/05/01 06:36:06;;;;;;;7.53;2.58;;;15.20;99.90;;;;;;5004475;28;20032;-78
2023/05/01 06:38:34;;;;;;;5.85;2.00;;;15.20;99.90;;;;;;5008021;28;20039;-81
2023/05/01 06:41:00;;;;;;;5.32;2.38;;;15.10;99.90;;;;;;5003965;28;20038;-78
2023/05/01 06:43:29;;;;;;;3.60;2.13;;;15.10;99.90;;;;;;5013213;28;20033;-77
2023/05/01 06:45:55;;;;;;;3.40;1.85;;;15.10;99.90;;;;;;5016862;28;20041;-79
2023/05/01 06:48:21;;;;;;;3.90;1.90;;;15.30;99.90;;;;;;5017913;28;20067;-81
2023/05/01 06:50:46;;;;;;;4.47;2.05;;;15.40;99.90;;;;;;5019106;28;20029;-78
2023/05/01 06:53:12;;;;;;;3.10;1.92;;;15.40;99.90;;;;;;5020668;28;20041;-77
2023/05/01 06:55:38;;;;;;;3.03;1.60;;;15.40;99.90;;;;;;5017491;28;20028;-76
2023/05/01 06:58:05;;;;;;;3.30;1.77;;;15.40;99.90;;;;;;5017123;28;20021;-76
2023/05/01 07:00:32;;;;;;;4.70;2.25;;;15.50;99.90;;;;;;5014852;28;20474;-77
2023/05/01 07:02:58;;;;;;;4.38;2.30;;;15.50;99.90;;;;;;5021133;28;20086;-77
2023/05/01 07:05:23;;;;;;;6.25;2.13;;;15.50;99.90;;;;;;5020934;28;20376;-76
2023/05/01 07:07:49;;;;;;;4.15;2.28;;;15.50;99.90;;;;;;5022959;28;20300;-77
2023/05/01 07:10:15;;;;;;;3.97;2.20;;;15.60;99.90;;;;;;5016920;28;20579;-78
2023/05/01 07:12:40;;;;;;;4.25;2.28;;;15.70;99.90;;;;;;5021918;28;20038;-76
2023/05/01 07:15:07;;;;;;;5.30;2.35;;;15.80;99.90;;;;;;5023612;28;20087;-76
2023/05/01 07:17:33;;;;;;;6.30;2.08;;;15.80;99.90;;;;;;5022284;28;20025;-76
2023/05/01 07:19:59;;;;;;;4.28;2.15;;;15.80;99.90;;;;;;5016195;28;20434;-77
2023/05/01 07:22:25;;;;;;;4.63;2.47;;;15.80;99.90;;;;;;5017081;28;20053;-76
2023/05/01 07:24:51;;;;;;;4.32;2.17;;;15.90;99.90;;;;;;5015276;28;20488;-76
2023/05/01 07:27:17;;;;;;;3.85;2.28;;;15.90;99.90;;;;;;5021056;28;20033;-76
2023/05/01 07:29:43;;;;;;;4.03;2.00;;;16.20;99.90;;;;;;5020453;28;20033;-75
2023/05/01 07:32:09;;;;;;;4.82;2.08;;;16.30;99.90;;;;;;5011838;28;20027;-77
2023/05/01 07:34:34;;;;;;;5.00;2.20;;;16.30;99.90;;;;;;5026514;28;20426;-79
2023/05/01 07:37:00;;;;;;;4.95;2.15;;;16.10;99.90;;;;;;5010774;28;20038;-78
2023/05/01 07:39:26;;;;;;;5.72;2.53;;;16.10;99.90;;;;;;5021121;28;20198;-77
2023/05/01 07:41:52;;;;;;;3.75;2.15;;;16.30;99.90;;;;;;5014544;28;20029;-77
2023/05/01 07:44:17;;;;;;;3.22;2.00;;;16.30;99.90;;;;;;5008876;28;20103;-77
2023/05/01 07:46:43;;;;;;;4.90;2.03;;;16.10;99.90;;;;;;5009877;28;20049;-77
2023/05/01 07:49:09;;;;;;;6.95;2.60;;;16.10;99.90;;;;;;5036149;28;20033;-77
2023/05/01 07:51:35;;;;;;;5.75;2.17;;;16.20;99.90;;;;;;5028990;28;20025;-77
2023/05/01 07:54:03;;;;;;;3.95;2.25;;;16.30;99.90;;;;;;5028921;28;20095;-77
2023/05/01 07:56:29;;;;;;;5.35;2.97;;;16.30;99.90;;;;;;5028473;28;20037;-77
2023/05/01 07:58:56;;;;;;;4.10;2.22;;;16.30;99.90;;;;;;5009639;28;20081;-76
2023/05/01 08:01:22;;;;;;;4.90;2.42;;;16.20;99.90;;;;;;5008289;28;20080;-77
2023/05/01 08:03:47;;;;;;;4.70;2.58;;;16.20;99.90;;;;;;5009016;28;20473;-77
2023/05/01 08:06:13;;;;;;;4.10;2.35;;;16.00;99.90;;;;;;5008731;28;20115;-77
2023/05/01 08:08:39;;;;;;;4.93;2.65;;;16.00;99.80;;;;;;5007379;28;20037;-77
2023/05/01 08:11:05;;;;;;;5.22;2.80;;;16.00;99.70;;;;;;5007528;28;20028;-77
2023/05/01 08:13:30;;;;;;;6.03;2.40;;;16.10;99.70;;;;;;5023159;28;20141;-77
2023/05/01 08:16:03;;;;;;;6.55;2.13;;;16.10;99.40;;;;;;5015009;28;20034;-78
2023/05/01 08:18:29;;;;;;;4.20;2.28;;;16.10;99.30;;;;;;5019497;28;20040;-77
2023/05/01 08:20:55;;;;;;;4.53;2.60;;;16.10;99.60;;;;;;5026762;28;20079;-77
2023/05/01 08:23:21;;;;;;;4.50;2.72;;;16.30;99.90;;;;;;5026231;28;20025;-77
2023/05/01 08:25:49;;;;;;;5.22;2.42;;;16.60;99.90;;;;;;5026290;28;20633;-77
2023/05/01 08:28:16;;;;;;;4.72;2.38;;;16.60;99.50;;;;;;5025832;28;20025;-77
2023/05/01 08:30:42;;;;;;;4.88;2.80;;;16.60;99.70;;;;;;5023082;28;20033;-75
2023/05/01 08:33:08;;;;;;;3.67;2.25;;;16.60;99.50;;;;;;5025971;28;20503;-77
2023/05/01 08:35:34;;;;;;;4.55;2.80;;;16.50;99.60;;;;;;5025650;28;20025;-76
2023/05/01 08:38:00;;;;;;;5.13;2.47;;;16.60;99.50;;;;;;5026075;28;20045;-77
2023/05/01 08:40:26;;;;;;;5.55;2.97;;;16.60;99.70;;;;;;5025318;28;20029;-76
2023/05/01 08:42:54;;;;;;;5.78;2.80;;;16.60;99.10;;;;;;5025308;28;20681;-76
2023/05/01 08:45:22;;;;;;;6.68;2.90;;;16.60;98.60;;;;;;5025735;28;20073;-77
2023/05/01 08:47:48;;;;;;;4.93;2.60;;;16.80;98.60;;;;;;5025584;28;20036;-76
2023/05/01 08:50:16;;;;;;;3.80;2.40;;;16.90;98.60;;;;;;5025384;28;20043;-77
2023/05/01 08:52:42;;;;;;;4.10;2.13;;;16.70;97.30;;;;;;5026290;28;20503;-77
2023/05/01 08:55:15;;;;;;;6.05;3.13;;;16.60;97.70;;;;;;5019494;28;20033;-77
2023/05/01 08:57:45;;;;;;;4.43;2.55;;;16.80;98.20;;;;;;5024025;28;20033;-77
2023/05/01 09:00:21;;;;;;;4.43;2.70;;;16.90;98.40;;;;;;5028163;28;20025;-77
2023/05/01 09:02:47;;;;;;;4.53;2.70;;;17.00;98.40;;;;;;5022842;28;20033;-77
2023/05/01 09:05:20;;;;;;;7.10;2.80;;;17.10;98.80;;;;;;5025979;28;20442;-77
2023/05/01 09:07:46;;;;;;;5.90;2.70;;;17.10;98.70;;;;;;5025357;28;20490;-77
2023/05/01 09:10:16;;;;;;;4.53;2.35;;;17.00;97.60;;;;;;5026801;28;20029;-77
2023/05/01 09:12:45;;;;;;;5.38;2.65;;;17.10;97.70;;;;;;5028439;28;20092;-77
2023/05/01 09:15:12;;;;;;;5.03;2.55;;;17.10;97.30;;;;;;5029570;28;20040;-76
2023/05/01 09:17:38;;;;;;;4.68;2.70;;;17.10;96.80;;;;;;5028673;28;20040;-76
2023/05/01 09:20:06;;;;;;;4.55;2.50;;;17.20;97.10;;;;;;5027473;28;20567;-77
2023/05/01 09:22:33;;;;;;;4.65;2.97;;;17.40;97.10;;;;;;5026942;28;20028;-77
2023/05/01 09:24:59;;;;;;;6.13;2.58;;;17.70;97.00;;;;;;5026031;28;20033;-77
2023/05/01 09:27:26;;;;;;;5.28;2.95;;;18.00;97.40;;;;;;5025787;28;20033;-77
2023/05/01 09:29:52;;;;;;;8.93;3.65;;;18.10;97.20;;;;;;5029386;28;20402;-77
2023/05/01 09:32:32;;;;;;;5.53;2.75;;;18.40;96.90;;;;;;5029103;28;20037;-77
2023/05/01 09:35:12;;;;;;;4.88;2.85;;;18.60;97.10;;;;;;5028122;28;20582;-77
2023/05/01 09:37:38;;;;;;;5.53;2.50;;;18.80;97.30;;;;;;5028819;28;20026;-77
2023/05/01 09:40:09;;;;;;;4.72;3.00;;;19.00;97.10;;;;;;5028049;28;20063;-77
2023/05/01 09:42:48;;;;;;;6.85;3.03;;;18.90;96.20;;;;;;5027045;28;20138;-77
2023/05/01 09:45:14;;;;;;;4.68;2.83;;;18.90;96.90;;;;;;5028766;28;20711;-76
2023/05/01 09:47:44;;;;;;;5.30;2.95;;;19.00;96.60;;;;;;5029413;28;20029;-76
2023/05/01 09:50:27;;;;;;;7.70;3.70;;;19.00;95.00;;;;;;5028017;28;20040;-77
2023/05/01 09:52:53;;;;;;;6.57;3.17;;;18.70;96.20;;;;;;5029005;28;20045;-77
2023/05/01 09:55:19;;;;;;;5.90;2.92;;;18.70;96.30;;;;;;5028607;28;20037;-77
2023/05/01 09:57:45;;;;;;;6.82;2.65;;;19.00;96.00;;;;;;5028932;28;20041;-77
2023/05/01 10:00:14;;;;;;;6.43;2.67;;;19.20;96.70;;;;;;5024652;28;20049;-77
2023/05/01 10:02:42;;;;;;;5.40;3.28;;;19.00;96.40;;;;;;5029716;28;20032;-77
2023/05/01 10:05:09;;;;;;;6.38;2.80;;;19.00;96.90;;;;;;5027160;28;20060;-77
2023/05/01 10:07:35;;;;;;;8.82;3.00;;;18.80;95.90;;;;;;5024637;28;20033;-75
2023/05/01 10:10:20;;;;;;;5.32;2.70;;;19.00;97.60;;;;;;5023343;28;20038;-77
2023/05/01 10:12:46;;;;;;;6.18;3.05;;;19.10;95.50;;;;;;5024383;28;20052;-75
2023/05/01 10:15:13;;;;;;;7.10;3.03;;;19.30;95.90;;;;;;5020807;28;20017;-77
2023/05/01 10:17:40;;;;;;;9.35;3.17;;;19.50;95.20;;;;;;5023445;28;20423;-77
2023/05/01 10:20:07;;;;;;;3.90;2.35;;;19.80;95.20;;;;;;5022535;28;20030;-77
2023/05/01 10:22:33;;;;;;;4.15;2.55;;;19.70;95.20;;;;;;5019201;28;20080;-75
2023/05/01 10:24:59;;;;;;;5.28;2.45;;;19.80;94.10;;;;;;5015370;28;20065;-76
2023/05/01 10:27:26;;;;;;;5.47;2.80;;;19.60;95.30;;;;;;5016585;28;20036;-76
2023/05/01 10:29:53;;;;;;;7.78;2.60;;;19.70;95.00;;;;;;5019215;28;20036;-77
2023/05/01 10:32:19;;;;;;;4.72;2.72;;;19.40;94.40;;;;;;5011480;28;20034;-79
2023/05/01 10:34:50;;;;;;;5.53;3.40;;;19.50;94.40;;;;;;5018674;28;20099;-76
2023/05/01 10:37:23;;;;;;;5.32;2.47;;;19.70;94.60;;;;;;5011905;28;20338;-77
2023/05/01 10:39:49;;;;;;;4.68;2.20;;;19.60;93.60;;;;;;5015606;28;20049;-78
2023/05/01 10:42:15;;;;;;;4.47;2.42;;;19.40;94.20;;;;;;5014165;28;20052;-75
2023/05/01 10:44:41;;;;;;;4.20;2.60;;;19.30;94.60;;;;;;5019895;28;20129;-75
2023/05/01 10:47:30;;;;;;;4.60;2.63;;;19.70;94.00;;;;;;5016590;28;20037;-75
2023/05/01 10:50:06;;;;;;;4.93;2.80;;;19.50;93.80;;;;;;5017006;28;20419;-77
2023/05/01 10:53:13;;;;;;;4.07;2.53;;;19.50;93.90;;;;;;5015861;28;20041;-77
2023/05/01 10:55:43;;;;;;;3.90;2.47;;;19.40;93.40;;;;;;5019988;28;20498;-77
2023/05/01 10:58:13;;;;;;;12.68;3.40;;;19.20;94.60;;;;;;5034340;28;20566;-78
2023/05/01 11:00:40;;;;;;;4.47;2.28;;;19.40;94.90;;;;;;5019176;28;20038;-77
2023/05/01 11:03:20;;;;;;;10.48;3.13;;;19.60;94.20;;;;;;5015068;28;20530;-76
2023/05/01 11:05:58;;;;;;;6.45;3.38;;;19.70;94.70;;;;;;5020070;28;20976;-78
2023/05/01 11:08:37;;;;;;;4.97;2.58;;;19.80;93.80;;;;;;5008752;28;20499;-76
2023/05/01 11:11:24;;;;;;;5.80;2.50;;;19.80;93.40;;;;;;5007481;28;20490;-76
2023/05/01 11:14:03;;;;;;;4.00;2.10;;;19.60;94.60;;;;;;5015387;28;20038;-78
2023/05/01 11:16:40;;;;;;;4.35;2.35;;;19.60;94.40;;;;;;5015303;28;20041;-77
2023/05/01 11:19:35;;;;;;;4.57;2.72;;;19.50;93.20;;;;;;5013572;28;20029;-76
2023/05/01 11:22:01;;;;;;;4.60;2.20;;;19.60;93.90;;;;;;5019004;28;20052;-75
2023/05/01 11:24:36;;;;;;;5.47;2.38;;;19.90;93.60;;;;;;5023341;28;20427;-78
2023/05/01 11:27:03;;;;;;;4.82;2.45;;;19.90;92.90;;;;;;5024509;28;20032;-77
2023/05/01 11:29:32;;;;;;;4.78;2.60;;;19.50;92.00;;;;;;5014238;28;20490;-78
2023/05/01 11:31:59;;;;;;;3.55;2.20;;;19.30;92.50;;;;;;5021753;28;20040;-78
2023/05/01 11:34:25;;;;;;;5.88;2.33;;;19.50;92.90;;;;;;5014089;28;20484;-78
2023/05/01 11:36:51;;;;;;;4.45;2.50;;;19.70;92.90;;;;;;5015655;28;20064;-78
2023/05/01 11:39:18;;;;;;;3.67;2.40;;;19.70;92.60;;;;;;5016583;28;20107;-78
2023/05/01 11:41:44;;;;;;;4.47;2.83;;;19.40;93.00;;;;;;5014474;28;20456;-77
2023/05/01 11:44:16;;;;;;;4.53;2.50;;;19.70;93.30;;;;;;5021892;28;20091;-77
2023/05/01 11:46:41;;;;;;;4.90;2.63;;;19.60;93.30;;;;;;5020951;28;20049;-78
2023/05/01 11:49:08;;;;;;;5.53;2.47;;;19.70;93.10;;;;;;5013530;28;20026;-79
2023/05/01 11:51:34;;;;;;;3.58;2.10;;;19.60;93.40;;;;;;5018429;28;20029;-77
2023/05/01 11:54:10;;;;;;;5.70;2.85;;;19.80;92.50;;;;;;5008903;28;20038;-77
2023/05/01 11:56:37;;;;;;;6.53;3.28;;;20.00;93.20;;;;;;5007342;28;20606;-78
2023/05/01 11:59:10;;;;;;;24.30;3.35;;;20.00;93.00;;;;;;5023346;28;20029;-78
2023/05/01 12:01:39;;;;;;;4.53;2.58;;;19.90;92.80;;;;;;5011309;28;20582;-78
2023/05/01 12:04:09;;;;;;;9.10;2.72;;;19.70;93.40;;;;;;5025651;28;20025;-78
2023/05/01 12:06:43;;;;;;;3.70;2.28;;;19.60;93.30;;;;;;5023928;28;20124;-78
2023/05/01 12:09:21;;;;;;;3.97;2.45;;;19.70;93.60;;;;;;5017710;28;20913;-78
2023/05/01 12:11:48;;;;;;;11.65;3.20;;;19.90;93.60;;;;;;5019726;28;20147;-78
2023/05/01 12:14:15;;;;;;;4.57;3.13;;;19.80;92.80;;;;;;5018196;28;20056;-78
2023/05/01 12:16:41;;;;;;;6.45;2.60;;;19.70;92.50;;;;;;5018845;28;20132;-79
2023/05/01 12:19:08;;;;;;;5.28;3.03;;;19.10;92.20;;;;;;5024659;28;20119;-80
2023/05/01 12:21:35;;;;;;;6.93;2.50;;;19.20;92.80;;;;;;5009981;28;20057;-79
2023/05/01 12:24:13;;;;;;;4.03;2.45;;;19.20;92.30;;;;;;5023875;28;20091;-79
2023/05/01 12:26:39;;;;;;;3.72;2.20;;;19.30;92.70;;;;;;5018294;28;20041;-78
2023/05/01 12:29:07;;;;;;;3.95;2.45;;;19.40;92.60;;;;;;5018202;28;20099;-79
2023/05/01 12:31:34;;;;;;;3.47;2.30;;;19.60;92.10;;;;;;5023240;28;20025;-79
2023/05/01 12:34:02;;;;;;;3.75;2.15;;;19.60;92.40;;;;;;5013501;28;20034;-78
2023/05/01 12:36:30;;;;;;;5.80;2.90;;;19.80;92.60;;;;;;5019004;28;20609;-78
2023/05/01 12:39:01;;;;;;;6.78;2.47;;;19.90;92.00;;;;;;5022289;28;20029;-79
2023/05/01 12:41:40;;;;;;;4.75;2.15;;;20.10;92.00;;;;;;5019656;28;20030;-79
2023/05/01 12:44:30;;;;;;;3.88;2.22;;;20.30;91.70;;;;;;5029111;28;20034;-79
2023/05/01 12:47:04;;;;;;;3.85;2.53;;;20.50;91.90;;;;;;5025977;28;20065;-79
2023/05/01 12:49:31;;;;;;;3.22;2.20;;;20.40;91.70;;;;;;5019677;28;20022;-79
2023/05/01 12:51:59;;;;;;;4.95;2.78;;;20.70;92.20;;;;;;5024815;28;20067;-79